createdAt,value
2018-06-14T00:01:10.131Z,5.63
2018-06-14T00:03:38.818Z,5.80
2018-06-14T00:06:07.384Z,6.23
2018-06-14T00:08:36.093Z,5.20
2018-06-14T00:11:04.722Z,6.57
2018-06-14T00:13:33.286Z,7.67
2018-06-14T00:16:01.826Z,5.37
2018-06-14T00:18:30.378Z,6.17
2018-06-14T00:20:58.950Z,6.20
2018-06-14T00:23:27.571Z,5.57
2018-06-14T00:25:56.066Z,9.83
2018-06-14T00:28:24.642Z,7.10
2018-06-14T00:30:53.399Z,7.63
2018-06-14T00:33:21.977Z,5.83
2018-06-14T00:35:50.706Z,8.13
2018-06-14T00:38:19.252Z,6.70
2018-06-14T00:40:47.871Z,8.07
2018-06-14T00:43:16.534Z,7.93
2018-06-14T00:45:45.199Z,11.53
2018-06-14T00:48:13.859Z,9.90
2018-06-14T00:50:42.573Z,7.70
2018-06-14T00:53:11.155Z,6.37
2018-06-14T00:55:39.738Z,10.63
2018-06-14T00:58:08.402Z,5.90
2018-06-14T01:00:37.031Z,6.73
2018-06-14T01:03:05.664Z,6.00
2018-06-14T01:05:34.155Z,6.13
2018-06-14T01:08:02.696Z,6.63
2018-06-14T01:10:31.222Z,6.87
2018-06-14T01:13:00.019Z,7.50
2018-06-14T01:15:28.685Z,7.63
2018-06-14T01:17:57.304Z,6.90
2018-06-14T01:20:25.963Z,10.13
2018-06-14T01:22:54.531Z,10.43
2018-06-14T01:25:23.157Z,8.67
2018-06-14T01:27:51.682Z,10.67
2018-06-14T01:30:20.263Z,7.13
2018-06-14T01:32:48.836Z,10.60
2018-06-14T01:35:17.501Z,8.43
2018-06-14T01:37:57.201Z,7.30
2018-06-14T01:40:25.827Z,13.30
2018-06-14T01:42:54.408Z,9.07
2018-06-14T01:45:23.034Z,8.70
2018-06-14T01:47:51.589Z,7.90
2018-06-14T01:50:20.228Z,9.47
2018-06-14T01:52:51.670Z,8.70
2018-06-14T01:55:20.407Z,6.90
2018-06-14T01:57:48.971Z,10.40
2018-06-14T02:00:17.610Z,5.93
2018-06-14T02:02:46.188Z,12.30
2018-06-14T02:05:14.842Z,8.17
2018-06-14T02:07:43.431Z,6.90
2018-06-14T02:10:12.048Z,7.13
2018-06-14T02:12:40.615Z,9.23
2018-06-14T02:15:08.841Z,10.67
2018-06-14T02:17:37.397Z,10.43
2018-06-14T02:20:06.218Z,9.63
2018-06-14T02:22:34.752Z,6.60
2018-06-14T02:25:03.459Z,7.80
2018-06-14T02:27:32.044Z,8.00
2018-06-14T02:30:00.733Z,9.43
2018-06-14T02:32:29.445Z,8.57
2018-06-14T02:34:58.061Z,6.70
2018-06-14T02:37:26.946Z,9.97
2018-06-14T02:39:55.559Z,13.83
2018-06-14T02:42:24.195Z,10.17
2018-06-14T02:44:52.810Z,9.93
2018-06-14T02:47:21.043Z,9.53
2018-06-14T02:49:49.674Z,13.10
2018-06-14T02:52:18.313Z,17.73
2018-06-14T02:54:46.859Z,8.60
2018-06-14T02:57:15.509Z,13.10
2018-06-14T02:59:44.120Z,10.57
2018-06-14T03:02:12.721Z,10.33
2018-06-14T03:04:41.406Z,11.63
2018-06-14T03:07:09.990Z,10.10
2018-06-14T03:09:38.591Z,14.37
2018-06-14T03:12:07.260Z,9.17
2018-06-14T03:14:35.900Z,9.30
2018-06-14T03:17:04.510Z,11.80
2018-06-14T03:19:33.171Z,11.70
2018-06-14T03:22:01.833Z,13.90
2018-06-14T03:24:30.407Z,10.67
2018-06-14T03:26:59.038Z,11.57
2018-06-14T03:29:27.666Z,14.90
2018-06-14T03:31:56.324Z,14.03
2018-06-14T03:34:24.898Z,16.27
2018-06-14T03:36:53.485Z,17.43
2018-06-14T03:39:22.071Z,14.30
2018-06-14T03:41:50.300Z,14.67
2018-06-14T03:44:18.866Z,11.63
2018-06-14T03:46:47.419Z,13.70
2018-06-14T03:49:15.963Z,11.97
2018-06-14T03:51:44.562Z,14.17
2018-06-14T03:54:13.189Z,13.57
2018-06-14T03:56:41.710Z,13.63
2018-06-14T03:59:10.319Z,10.80
2018-06-14T04:01:38.963Z,13.87
2018-06-14T04:04:10.347Z,11.23
2018-06-14T04:06:38.916Z,10.83
2018-06-14T04:09:08.795Z,14.77
2018-06-14T04:11:37.444Z,14.47
2018-06-14T04:14:06.288Z,11.63
2018-06-14T04:16:35.211Z,13.87
2018-06-14T04:19:03.849Z,13.93
2018-06-14T04:21:32.464Z,23.63
2018-06-14T04:24:01.073Z,18.63
2018-06-14T04:26:29.287Z,12.33
2018-06-14T04:28:57.959Z,14.23
2018-06-14T04:31:26.600Z,10.73
2018-06-14T04:33:55.224Z,12.03
2018-06-14T04:36:23.788Z,11.17
2018-06-14T04:38:52.428Z,10.97
2018-06-14T04:41:21.059Z,11.17
2018-06-14T04:43:49.627Z,10.67
2018-06-14T04:46:18.202Z,13.70
2018-06-14T04:48:46.734Z,13.90
2018-06-14T04:51:15.344Z,14.90
2018-06-14T04:53:50.663Z,17.13
2018-06-14T04:56:19.314Z,15.33
2018-06-14T04:58:47.902Z,17.23
2018-06-14T05:01:16.500Z,17.10
2018-06-14T05:03:45.024Z,13.87
2018-06-14T05:06:13.581Z,13.07
2018-06-14T05:08:42.242Z,17.57
2018-06-14T05:11:10.858Z,21.77
2018-06-14T05:13:39.474Z,15.27
2018-06-14T05:16:08.042Z,16.87
2018-06-14T05:18:36.667Z,14.10
2018-06-14T05:21:05.316Z,16.90
2018-06-14T05:23:33.929Z,15.43
2018-06-14T05:26:02.466Z,14.73
2018-06-14T05:28:31.035Z,16.30
2018-06-14T05:30:59.536Z,15.60
2018-06-14T05:33:28.096Z,17.30
2018-06-14T05:35:56.719Z,21.10
2018-06-14T05:38:25.407Z,16.60
2018-06-14T05:40:53.949Z,19.97
2018-06-14T05:43:22.547Z,16.07
2018-06-14T05:45:51.164Z,18.90
2018-06-14T05:48:19.806Z,24.00
2018-06-14T05:50:48.354Z,18.77
2018-06-14T05:53:17.042Z,15.80
2018-06-14T05:55:45.262Z,16.67
2018-06-14T05:58:13.953Z,17.20
2018-06-14T06:00:43.226Z,17.10
2018-06-14T06:03:11.895Z,16.37
2018-06-14T06:05:40.397Z,16.57
2018-06-14T06:08:09.077Z,14.97
2018-06-14T06:10:37.685Z,15.27
2018-06-14T06:13:06.307Z,16.37
2018-06-14T06:15:34.915Z,16.87
2018-06-14T06:18:03.517Z,16.13
2018-06-14T06:20:32.067Z,17.30
2018-06-14T06:23:00.728Z,14.77
2018-06-14T06:25:29.250Z,15.23
2018-06-14T06:27:57.518Z,13.63
2018-06-14T06:30:25.746Z,16.00
2018-06-14T06:32:54.337Z,21.17
2018-06-14T06:35:22.950Z,14.27
2018-06-14T06:37:51.895Z,19.00
2018-06-14T06:40:20.467Z,15.50
2018-06-14T06:42:49.039Z,13.53
2018-06-14T06:45:17.710Z,13.43
2018-06-14T06:47:45.925Z,13.13
2018-06-14T06:50:14.521Z,16.93
2018-06-14T06:52:43.033Z,14.40
2018-06-14T06:55:11.555Z,12.13
2018-06-14T06:57:40.122Z,10.10
2018-06-14T07:00:08.736Z,12.70
2018-06-14T07:02:37.268Z,12.90
2018-06-14T07:05:05.909Z,9.17
2018-06-14T07:07:34.544Z,12.47
2018-06-14T07:10:03.122Z,9.33
2018-06-14T07:12:31.745Z,11.87
2018-06-14T07:15:00.339Z,9.80
2018-06-14T07:17:28.935Z,9.20
2018-06-14T07:19:57.483Z,8.00
2018-06-14T07:22:26.055Z,9.30
2018-06-14T07:24:54.627Z,9.67
2018-06-14T07:27:23.157Z,5.50
2018-06-14T07:29:51.773Z,3.90
2018-06-14T07:32:20.314Z,3.50
2018-06-14T07:34:48.856Z,2.90
2018-06-14T07:37:17.455Z,3.80
2018-06-14T07:39:46.111Z,3.37
2018-06-14T07:42:14.681Z,3.40
2018-06-14T07:44:43.269Z,1.73
2018-06-14T07:47:11.814Z,2.80
2018-06-14T07:49:40.414Z,4.33
2018-06-14T07:52:09.039Z,3.03
2018-06-14T07:54:37.703Z,2.13
2018-06-14T07:57:06.347Z,3.17
2018-06-14T07:59:34.912Z,2.27
2018-06-14T08:02:03.460Z,2.93
2018-06-14T08:04:32.051Z,2.37
2018-06-14T08:07:00.620Z,3.70
2018-06-14T08:09:29.243Z,2.17
2018-06-14T08:11:57.899Z,2.30
2018-06-14T08:14:26.486Z,3.23
2018-06-14T08:16:55.035Z,2.37
2018-06-14T08:19:23.546Z,2.87
2018-06-14T08:21:52.123Z,1.90
2018-06-14T08:24:20.751Z,2.30
2018-06-14T08:26:49.269Z,2.77
2018-06-14T08:29:17.948Z,2.73
2018-06-14T08:31:46.472Z,3.00
2018-06-14T08:34:15.100Z,3.30
2018-06-14T08:36:43.649Z,2.43
2018-06-14T08:39:12.304Z,2.93
2018-06-14T08:41:40.888Z,2.80
2018-06-14T08:44:09.448Z,1.67
2018-06-14T08:46:38.037Z,2.60
2018-06-14T08:49:06.746Z,4.53
2018-06-14T08:51:35.311Z,2.73
2018-06-14T08:54:03.970Z,2.20
2018-06-14T08:56:32.517Z,2.50
2018-06-14T08:59:01.090Z,2.03
2018-06-14T09:01:29.663Z,2.80
2018-06-14T09:03:58.243Z,3.23
2018-06-14T09:06:26.823Z,2.00
2018-06-14T09:08:55.447Z,2.80
2018-06-14T09:11:23.642Z,3.33
2018-06-14T09:13:52.252Z,2.47
2018-06-14T09:16:20.827Z,3.00
2018-06-14T09:18:49.350Z,2.33
2018-06-14T09:21:17.868Z,2.77
2018-06-14T09:23:46.472Z,2.83
2018-06-14T09:26:15.099Z,1.90
2018-06-14T09:28:43.631Z,3.30
2018-06-14T09:31:12.242Z,2.70
2018-06-14T09:33:40.822Z,2.13
2018-06-14T09:36:09.500Z,5.63
2018-06-14T09:38:38.113Z,2.60
2018-06-14T09:41:06.743Z,2.83
2018-06-14T09:43:35.299Z,4.13
2018-06-14T09:46:03.902Z,3.67
2018-06-14T09:48:32.846Z,3.77
2018-06-14T09:51:01.384Z,3.83
2018-06-14T09:53:30.022Z,4.93
2018-06-14T09:55:58.666Z,4.33
2018-06-14T09:58:27.229Z,2.97
2018-06-14T10:00:55.793Z,3.80
2018-06-14T10:03:24.341Z,5.30
2018-06-14T10:05:52.949Z,3.67
2018-06-14T10:08:21.492Z,2.30
2018-06-14T10:10:50.130Z,2.60
2018-06-14T10:13:18.697Z,2.57
2018-06-14T10:15:47.259Z,2.47
2018-06-14T10:18:15.908Z,2.80
2018-06-14T10:20:44.512Z,2.57
2018-06-14T10:23:13.106Z,3.90
2018-06-14T10:25:41.632Z,3.40
2018-06-14T10:28:10.236Z,5.20
2018-06-14T10:30:38.865Z,3.37
2018-06-14T10:33:07.498Z,3.33
2018-06-14T10:35:36.122Z,4.30
2018-06-14T10:38:04.784Z,2.53
2018-06-14T10:40:33.411Z,2.70
2018-06-14T10:43:03.833Z,3.33
2018-06-14T10:45:33.081Z,2.63
2018-06-14T10:48:01.931Z,4.93
2018-06-14T10:50:30.528Z,2.77
2018-06-14T10:52:59.406Z,4.70
2018-06-14T10:55:28.756Z,3.20
2018-06-14T10:57:57.343Z,2.40
2018-06-14T11:00:25.936Z,3.10
2018-06-14T11:02:54.557Z,3.73
2018-06-14T11:05:23.145Z,2.87
2018-06-14T11:07:51.749Z,6.77
2018-06-14T11:10:20.383Z,3.10
2018-06-14T11:12:49.298Z,2.83
2018-06-14T11:15:17.874Z,2.80
2018-06-14T11:17:46.522Z,4.30
2018-06-14T11:20:15.110Z,5.80
2018-06-14T11:22:43.723Z,3.10
2018-06-14T11:25:12.315Z,2.90
2018-06-14T11:27:40.969Z,3.50
2018-06-14T11:30:09.596Z,2.50
2018-06-14T11:32:38.371Z,2.97
2018-06-14T11:35:07.004Z,2.70
2018-06-14T11:37:35.550Z,6.10
2018-06-14T11:40:04.174Z,3.40
2018-06-14T11:42:32.797Z,2.80
2018-06-14T11:45:01.399Z,4.23
2018-06-14T11:47:29.954Z,3.10
2018-06-14T11:49:58.593Z,6.03
2018-06-14T11:52:27.183Z,3.60
2018-06-14T11:54:55.714Z,4.63
2018-06-14T11:57:24.329Z,4.07
2018-06-14T11:59:53.824Z,3.73
2018-06-14T12:02:22.924Z,3.40
2018-06-14T12:04:52.381Z,4.00
2018-06-14T12:07:20.910Z,3.27
2018-06-14T12:09:49.550Z,2.50
2018-06-14T12:12:18.155Z,2.50
2018-06-14T12:14:47.148Z,3.13
2018-06-14T12:17:15.743Z,2.63
2018-06-14T12:19:44.372Z,2.73
2018-06-14T12:22:13.012Z,4.53
2018-06-14T12:24:41.571Z,4.13
2018-06-14T12:27:10.130Z,5.60
2018-06-14T12:29:38.762Z,3.90
2018-06-14T12:32:07.435Z,3.27
2018-06-14T12:34:36.008Z,3.10
2018-06-14T12:37:04.672Z,3.47
2018-06-14T12:39:33.225Z,3.20
2018-06-14T12:42:01.894Z,3.37
2018-06-14T12:44:30.487Z,3.10
2018-06-14T12:46:59.074Z,4.80
2018-06-14T12:49:27.700Z,4.73
2018-06-14T12:51:56.282Z,2.87
2018-06-14T12:54:24.819Z,5.60
2018-06-14T12:56:53.407Z,5.30
2018-06-14T12:59:22.055Z,4.07
2018-06-14T13:01:50.721Z,3.17
2018-06-14T13:04:19.259Z,3.80
2018-06-14T13:06:48.896Z,3.90
2018-06-14T13:09:18.076Z,3.20
2018-06-14T13:11:46.734Z,3.97
2018-06-14T13:14:16.164Z,5.10
2018-06-14T13:16:44.776Z,2.70
2018-06-14T13:19:13.362Z,4.87
2018-06-14T13:21:41.928Z,4.00
2018-06-14T13:24:10.503Z,3.30
2018-06-14T13:26:39.157Z,4.67
2018-06-14T13:29:07.744Z,3.10
2018-06-14T13:31:36.473Z,6.10
2018-06-14T13:34:05.087Z,2.83
2018-06-14T13:36:33.743Z,3.50
2018-06-14T13:39:02.371Z,2.93
2018-06-14T13:41:30.912Z,4.43
2018-06-14T13:43:59.557Z,3.47
2018-06-14T13:46:28.158Z,3.50
2018-06-14T13:48:56.902Z,2.90
2018-06-14T13:51:25.416Z,2.97
2018-06-14T13:53:54.111Z,2.50
2018-06-14T13:56:22.707Z,3.00
2018-06-14T13:58:51.292Z,3.63
2018-06-14T14:01:20.055Z,3.37
2018-06-14T14:03:48.715Z,3.30
2018-06-14T14:06:17.258Z,3.00
2018-06-14T14:08:45.899Z,3.47
2018-06-14T14:11:14.469Z,2.37
2018-06-14T14:13:43.133Z,4.10
2018-06-14T14:16:11.675Z,3.43
2018-06-14T14:18:40.315Z,2.83
2018-06-14T14:21:09.036Z,3.50
2018-06-14T14:23:37.618Z,3.70
2018-06-14T14:26:06.134Z,4.03
2018-06-14T14:28:34.766Z,4.47
2018-06-14T14:31:03.399Z,4.33
2018-06-14T14:33:31.785Z,3.10
2018-06-14T14:36:00.336Z,2.20
2018-06-14T14:38:29.017Z,3.00
2018-06-14T14:40:57.640Z,2.80
2018-06-14T14:43:26.505Z,3.63
2018-06-14T14:45:55.140Z,3.73
2018-06-14T14:48:23.738Z,2.93
2018-06-14T14:50:52.355Z,3.60
2018-06-14T14:53:21.026Z,2.87
2018-06-14T14:55:49.678Z,2.80
2018-06-14T14:58:18.295Z,4.97
2018-06-14T15:00:46.820Z,4.20
2018-06-14T15:03:15.504Z,3.80
2018-06-14T15:05:44.153Z,4.23
2018-06-14T15:08:12.764Z,3.57
2018-06-14T15:10:41.403Z,2.83
2018-06-14T15:13:09.994Z,5.90
2018-06-14T15:15:38.575Z,5.00
2018-06-14T15:18:07.206Z,3.03
2018-06-14T15:20:35.866Z,6.37
2018-06-14T15:23:04.442Z,3.50
2018-06-14T15:25:33.070Z,3.20
2018-06-14T15:28:01.649Z,2.53
2018-06-14T15:30:30.349Z,2.87
2018-06-14T15:32:59.058Z,3.30
2018-06-14T15:35:27.594Z,3.80
2018-06-14T15:37:55.878Z,5.00
2018-06-14T15:40:24.134Z,2.93
2018-06-14T15:42:52.740Z,3.87
2018-06-14T15:45:21.300Z,4.33
2018-06-14T15:47:49.940Z,4.17
2018-06-14T15:50:18.591Z,2.97
2018-06-14T15:52:47.161Z,4.20
2018-06-14T15:55:26.962Z,2.93
2018-06-14T15:57:55.613Z,2.67
2018-06-14T16:00:24.221Z,5.93
2018-06-14T16:02:52.738Z,5.50
2018-06-14T16:05:21.350Z,2.77
2018-06-14T16:07:49.950Z,4.43
2018-06-14T16:10:18.559Z,6.33
2018-06-14T16:12:47.054Z,6.20
2018-06-14T16:15:15.653Z,3.10
2018-06-14T16:17:44.259Z,2.80
2018-06-14T16:20:12.950Z,3.50
2018-06-14T16:22:41.489Z,2.93
2018-06-14T16:25:10.072Z,3.90
2018-06-14T16:27:38.842Z,3.63
2018-06-14T16:30:07.574Z,2.93
2018-06-14T16:32:36.693Z,7.00
2018-06-14T16:35:09.339Z,2.90
2018-06-14T16:37:49.526Z,4.83
2018-06-14T16:40:18.158Z,4.80
2018-06-14T16:42:46.775Z,4.83
2018-06-14T16:45:15.387Z,3.20
2018-06-14T16:47:44.001Z,3.10
2018-06-14T16:50:12.666Z,4.77
2018-06-14T16:52:41.298Z,3.23
2018-06-14T16:55:09.854Z,4.23
2018-06-14T16:57:38.433Z,3.80
2018-06-14T17:00:07.645Z,5.23
2018-06-14T17:02:36.226Z,3.53
2018-06-14T17:05:04.972Z,5.90
2018-06-14T17:07:33.605Z,5.03
2018-06-14T17:10:02.527Z,3.00
2018-06-14T17:12:31.146Z,4.80
2018-06-14T17:14:59.841Z,3.03
2018-06-14T17:17:28.475Z,4.90
2018-06-14T17:19:57.102Z,3.00
2018-06-14T17:22:25.754Z,7.20
2018-06-14T17:24:54.334Z,3.13
2018-06-14T17:27:22.954Z,2.90
2018-06-14T17:29:52.707Z,3.00
2018-06-14T17:32:21.406Z,4.00
2018-06-14T17:34:50.158Z,3.97
2018-06-14T17:37:18.765Z,4.90
2018-06-14T17:39:47.391Z,3.70
2018-06-14T17:42:15.681Z,4.80
2018-06-14T17:44:45.317Z,4.80
2018-06-14T17:47:14.017Z,3.57
2018-06-14T17:49:42.601Z,3.47
2018-06-14T17:52:11.254Z,3.50
2018-06-14T17:54:39.841Z,4.23
2018-06-14T17:57:08.418Z,5.57
2018-06-14T17:59:36.974Z,5.60
2018-06-14T18:02:05.602Z,3.50
2018-06-14T18:04:34.100Z,5.90
2018-06-14T18:07:02.729Z,4.43
2018-06-14T18:09:31.296Z,4.13
2018-06-14T18:11:59.993Z,3.13
2018-06-14T18:14:28.727Z,3.63
2018-06-14T18:16:57.421Z,3.43
2018-06-14T18:19:26.093Z,3.90
2018-06-14T18:21:54.649Z,4.77
2018-06-14T18:24:22.857Z,7.60
2018-06-14T18:26:51.508Z,5.57
2018-06-14T18:29:20.111Z,5.33
2018-06-14T18:31:48.719Z,7.40
2018-06-14T18:34:17.265Z,6.47
2018-06-14T18:36:45.827Z,4.07
2018-06-14T18:39:14.424Z,5.53
2018-06-14T18:41:42.732Z,6.37
2018-06-14T18:44:11.359Z,4.77
2018-06-14T18:46:39.994Z,4.63
2018-06-14T18:49:08.519Z,7.17
2018-06-14T18:51:37.165Z,4.40
2018-06-14T18:54:05.869Z,6.10
2018-06-14T18:56:34.520Z,5.03
2018-06-14T18:59:03.134Z,3.70
2018-06-14T19:01:31.692Z,4.33
2018-06-14T19:04:00.637Z,5.30
2018-06-14T19:06:29.333Z,4.77
2018-06-14T19:08:57.871Z,3.70
2018-06-14T19:11:26.616Z,6.53
2018-06-14T19:13:55.231Z,5.23
2018-06-14T19:16:23.796Z,6.17
2018-06-14T19:18:52.545Z,4.70
2018-06-14T19:21:21.321Z,5.77
2018-06-14T19:23:50.078Z,9.27
2018-06-14T19:26:18.731Z,5.23
2018-06-14T19:28:47.324Z,4.93
2018-06-14T19:31:15.899Z,4.50
2018-06-14T19:33:44.509Z,4.53
2018-06-14T19:36:13.052Z,3.83
2018-06-14T19:38:41.663Z,4.17
2018-06-14T19:41:10.296Z,3.90
2018-06-14T19:43:38.979Z,5.13
2018-06-14T19:46:07.640Z,4.43
2018-06-14T19:48:36.358Z,7.30
2018-06-14T19:51:04.920Z,7.33
2018-06-14T19:53:33.539Z,7.30
2018-06-14T19:56:02.395Z,5.20
2018-06-14T19:58:31.125Z,4.40
2018-06-14T20:00:59.697Z,4.37
2018-06-14T20:03:28.445Z,4.53
2018-06-14T20:05:57.854Z,5.73
2018-06-14T20:08:26.438Z,6.00
2018-06-14T20:10:54.965Z,5.57
2018-06-14T20:13:23.665Z,5.20
2018-06-14T20:15:52.243Z,6.57
2018-06-14T20:18:20.911Z,4.33
2018-06-14T20:20:49.668Z,5.20
2018-06-14T20:23:18.205Z,4.60
2018-06-14T20:25:46.874Z,5.00
2018-06-14T20:28:15.561Z,5.00
2018-06-14T20:30:44.104Z,7.07
2018-06-14T20:33:12.655Z,4.70
2018-06-14T20:35:41.231Z,5.60
2018-06-14T20:38:09.859Z,4.70
2018-06-14T20:40:38.495Z,6.50
2018-06-14T20:43:06.743Z,5.63
2018-06-14T20:45:35.258Z,5.70
2018-06-14T20:48:03.794Z,5.77
2018-06-14T20:50:32.482Z,6.77
2018-06-14T20:53:01.079Z,5.73
2018-06-14T20:55:29.722Z,7.57
2018-06-14T20:57:58.398Z,5.60
2018-06-14T21:00:27.380Z,7.33
2018-06-14T21:02:55.957Z,8.20
2018-06-14T21:05:24.499Z,6.73
2018-06-14T21:07:53.083Z,6.57
2018-06-14T21:10:21.636Z,8.60
2018-06-14T21:12:50.215Z,7.57
2018-06-14T21:15:19.120Z,8.03
2018-06-14T21:17:47.861Z,8.93
2018-06-14T21:20:16.507Z,7.90
2018-06-14T21:22:45.100Z,8.17
2018-06-14T21:25:13.839Z,10.07
2018-06-14T21:27:42.421Z,8.00
2018-06-14T21:30:11.093Z,7.77
2018-06-14T21:32:39.770Z,7.63
2018-06-14T21:35:08.422Z,8.07
2018-06-14T21:37:37.119Z,8.07
2018-06-14T21:40:05.828Z,8.07
2018-06-14T21:42:34.472Z,7.93
2018-06-14T21:45:03.126Z,8.60
2018-06-14T21:47:32.736Z,9.00
2018-06-14T21:50:01.352Z,9.93
2018-06-14T21:52:29.939Z,6.87
2018-06-14T21:54:58.522Z,6.70
2018-06-14T21:57:27.155Z,6.77
2018-06-14T21:59:55.758Z,7.37
2018-06-14T22:02:24.376Z,7.80
2018-06-14T22:04:53.054Z,6.60
2018-06-14T22:07:21.645Z,9.00
2018-06-14T22:09:50.254Z,7.10
2018-06-14T22:12:18.858Z,5.77
2018-06-14T22:14:47.088Z,5.77
2018-06-14T22:17:15.693Z,6.83
2018-06-14T22:19:44.417Z,7.20
2018-06-14T22:22:13.058Z,6.93
2018-06-14T22:24:41.613Z,6.27
2018-06-14T22:27:10.212Z,6.47
2018-06-14T22:29:38.727Z,6.13
2018-06-14T22:32:07.329Z,6.80
2018-06-14T22:34:47.234Z,6.70
2018-06-14T22:37:15.854Z,7.00
2018-06-14T22:39:44.485Z,7.20
2018-06-14T22:42:13.139Z,5.83
2018-06-14T22:44:41.762Z,5.97
2018-06-14T22:47:10.323Z,7.70
2018-06-14T22:49:38.893Z,7.07
2018-06-14T22:53:11.344Z,6.80
2018-06-14T22:55:40.026Z,7.87
2018-06-14T22:58:08.593Z,7.53
2018-06-14T23:01:43.462Z,6.63
2018-06-14T23:04:13.110Z,7.00
2018-06-14T23:06:41.673Z,7.30
2018-06-14T23:10:28.875Z,7.63
2018-06-14T23:12:57.455Z,8.13
2018-06-14T23:15:26.059Z,6.00
2018-06-14T23:17:54.798Z,9.13
2018-06-14T23:20:24.263Z,6.60
2018-06-14T23:22:53.912Z,7.33
2018-06-14T23:25:23.654Z,6.40
2018-06-14T23:27:53.467Z,6.63
2018-06-14T23:30:21.993Z,7.50
2018-06-14T23:32:50.750Z,6.50
2018-06-14T23:35:19.520Z,8.73
2018-06-14T23:37:47.809Z,6.40
2018-06-14T23:40:16.380Z,6.60
2018-06-14T23:42:44.935Z,8.57
2018-06-14T23:45:13.475Z,10.70
2018-06-14T23:47:42.157Z,6.60
2018-06-14T23:50:10.673Z,9.57
2018-06-14T23:52:39.292Z,6.40
2018-06-14T23:55:07.623Z,6.43
2018-06-14T23:57:36.231Z,7.10
